createdAt,value
2023-02-13T00:02:25.171Z,4.65
2023-02-13T00:04:51.692Z,4.64
2023-02-13T00:07:18.128Z,4.73
2023-02-13T00:09:44.612Z,4.63
2023-02-13T00:12:11.058Z,4.85
2023-02-13T00:14:38.056Z,4.76
2023-02-13T00:17:04.644Z,4.31
2023-02-13T00:19:31.135Z,4.49
2023-02-13T00:21:57.577Z,4.64
2023-02-13T00:24:24.049Z,4.73
2023-02-13T00:26:50.495Z,4.80
2023-02-13T00:29:17.040Z,4.37
2023-02-13T00:31:43.653Z,4.49
2023-02-13T00:34:10.420Z,4.58
2023-02-13T00:36:36.874Z,4.34
2023-02-13T00:39:03.370Z,4.28
2023-02-13T00:41:30.088Z,4.43
2023-02-13T00:43:56.591Z,4.56
2023-02-13T00:46:23.156Z,4.77
2023-02-13T00:48:49.609Z,4.90
2023-02-13T00:51:16.099Z,4.74
2023-02-13T00:53:42.583Z,4.30
2023-02-13T00:56:09.109Z,4.14
2023-02-13T00:58:36.275Z,4.41
2023-02-13T01:01:02.763Z,4.40
2023-02-13T01:03:29.382Z,4.00
2023-02-13T01:05:56.273Z,3.94
2023-02-13T01:08:22.935Z,4.19
2023-02-13T01:10:49.543Z,4.29
2023-02-13T01:13:16.542Z,4.20
2023-02-13T01:15:43.069Z,4.64
2023-02-13T01:18:09.785Z,4.53
2023-02-13T01:20:36.389Z,3.75
2023-02-13T01:23:02.896Z,3.85
2023-02-13T01:25:29.366Z,4.25
2023-02-13T01:27:57.677Z,4.35
2023-02-13T01:30:24.186Z,3.82
2023-02-13T01:32:50.648Z,3.91
2023-02-13T01:35:17.199Z,4.18
2023-02-13T01:37:43.810Z,4.30
2023-02-13T01:40:11.620Z,4.11
2023-02-13T01:42:38.084Z,3.48
2023-02-13T01:45:05.527Z,3.39
2023-02-13T01:47:35.006Z,3.41
2023-02-13T01:50:07.219Z,3.23
2023-02-13T01:52:33.781Z,3.46
2023-02-13T01:55:01.719Z,3.86
2023-02-13T01:57:28.679Z,3.92
2023-02-13T01:59:56.656Z,3.33
2023-02-13T02:02:23.279Z,3.52
2023-02-13T02:04:49.847Z,3.85
2023-02-13T02:07:21.399Z,3.94
2023-02-13T02:09:49.082Z,4.11
2023-02-13T02:12:54.476Z,4.19
2023-02-13T02:15:21.373Z,4.38
2023-02-13T02:17:48.100Z,4.17
2023-02-13T02:20:24.506Z,4.07
2023-02-13T02:22:55.270Z,4.17
2023-02-13T02:25:24.730Z,3.84
2023-02-13T02:27:57.734Z,3.37
2023-02-13T02:30:35.463Z,3.77
2023-02-13T02:33:05.996Z,3.89
2023-02-13T02:35:34.183Z,3.13
2023-02-13T02:38:15.185Z,3.01
2023-02-13T02:40:41.760Z,3.51
2023-02-13T02:43:08.235Z,3.79
2023-02-13T02:45:34.665Z,4.04
2023-02-13T02:48:23.772Z,3.96
2023-02-13T02:50:50.283Z,3.36
2023-02-13T02:53:35.956Z,3.52
2023-02-13T02:56:06.512Z,3.83
2023-02-13T02:58:56.212Z,3.89
2023-02-13T03:01:44.203Z,3.74
2023-02-13T03:04:37.641Z,3.89
2023-02-13T03:07:05.393Z,3.81
2023-02-13T03:09:51.262Z,4.03
2023-02-13T03:12:37.724Z,3.95
2023-02-13T03:15:04.390Z,3.88
2023-02-13T03:18:03.095Z,3.67
2023-02-13T03:20:51.530Z,3.56
2023-02-13T03:23:20.841Z,3.64
2023-02-13T03:25:54.880Z,3.74
2023-02-13T03:28:42.924Z,3.53
2023-02-13T03:31:24.523Z,3.33
2023-02-13T03:34:17.356Z,3.67
2023-02-13T03:37:04.492Z,3.38
2023-02-13T03:39:52.286Z,3.42
2023-02-13T03:42:21.717Z,3.34
2023-02-13T03:45:12.082Z,2.67
2023-02-13T03:47:38.660Z,2.97
2023-02-13T03:50:05.940Z,3.13
2023-02-13T03:52:51.389Z,3.38
2023-02-13T03:55:39.868Z,3.01
2023-02-13T03:58:51.091Z,3.37
2023-02-13T04:01:18.589Z,2.88
2023-02-13T04:03:56.721Z,2.87
2023-02-13T04:06:24.941Z,3.34
2023-02-13T04:08:51.403Z,3.07
2023-02-13T04:11:40.948Z,2.87
2023-02-13T04:14:08.266Z,3.36
2023-02-13T04:16:35.868Z,3.05
2023-02-13T04:19:02.326Z,3.23
2023-02-13T04:21:31.882Z,3.51
2023-02-13T04:23:58.334Z,2.97
2023-02-13T04:26:24.824Z,2.77
2023-02-13T04:28:51.284Z,3.22
2023-02-13T04:31:17.936Z,2.77
2023-02-13T04:33:44.494Z,2.67
2023-02-13T04:36:10.967Z,2.95
2023-02-13T04:38:37.453Z,3.27
2023-02-13T04:41:03.937Z,3.64
2023-02-13T04:43:30.442Z,3.07
2023-02-13T04:45:57.065Z,3.41
2023-02-13T04:48:23.611Z,3.61
2023-02-13T04:50:50.089Z,3.49
2023-02-13T04:53:16.563Z,3.67
2023-02-13T04:55:43.020Z,3.64
2023-02-13T04:58:09.512Z,3.39
2023-02-13T05:00:37.652Z,3.61
2023-02-13T05:03:04.671Z,3.60
2023-02-13T05:05:31.172Z,3.77
2023-02-13T05:07:57.661Z,3.82
2023-02-13T05:10:24.141Z,3.43
2023-02-13T05:13:05.843Z,3.69
2023-02-13T05:15:32.402Z,3.79
2023-02-13T05:17:58.889Z,3.83
2023-02-13T05:20:25.311Z,3.80
2023-02-13T05:23:11.067Z,3.77
2023-02-13T05:25:37.796Z,3.61
2023-02-13T05:28:04.605Z,3.32
2023-02-13T05:30:31.059Z,3.79
2023-02-13T05:32:57.493Z,3.51
2023-02-13T05:35:24.834Z,2.88
2023-02-13T05:37:51.331Z,2.97
2023-02-13T05:40:17.961Z,3.09
2023-02-13T05:42:44.526Z,3.41
2023-02-13T05:45:11.018Z,3.61
2023-02-13T05:47:37.518Z,3.52
2023-02-13T05:50:04.011Z,3.56
2023-02-13T05:52:30.476Z,3.75
2023-02-13T05:54:56.909Z,3.35
2023-02-13T05:57:23.385Z,3.51
2023-02-13T05:59:49.823Z,3.66
2023-02-13T06:02:16.292Z,3.24
2023-02-13T06:04:43.140Z,3.59
2023-02-13T06:07:09.725Z,3.69
2023-02-13T06:09:36.226Z,3.67
2023-02-13T06:12:02.712Z,3.70
2023-02-13T06:14:29.141Z,3.77
2023-02-13T06:16:55.576Z,3.52
2023-02-13T06:19:22.112Z,3.16
2023-02-13T06:21:48.587Z,3.26
2023-02-13T06:24:15.043Z,3.46
2023-02-13T06:26:41.530Z,3.45
2023-02-13T06:29:09.336Z,3.50
2023-02-13T06:31:35.870Z,3.71
2023-02-13T06:34:02.353Z,3.28
2023-02-13T06:36:28.831Z,2.71
2023-02-13T06:38:55.289Z,2.63
2023-02-13T06:41:22.220Z,2.61
2023-02-13T06:43:48.719Z,2.47
2023-02-13T06:46:15.182Z,2.87
2023-02-13T06:48:41.786Z,2.68
2023-02-13T06:51:08.281Z,2.47
2023-02-13T06:53:34.746Z,2.75
2023-02-13T06:56:03.523Z,2.56
2023-02-13T06:58:30.023Z,2.51
2023-02-13T07:00:56.728Z,2.59
2023-02-13T07:03:23.545Z,2.94
2023-02-13T07:05:52.071Z,2.76
2023-02-13T07:08:18.542Z,2.95
2023-02-13T07:10:45.026Z,2.93
2023-02-13T07:13:11.523Z,2.84
2023-02-13T07:15:37.975Z,3.07
2023-02-13T07:18:05.609Z,3.02
2023-02-13T07:20:32.239Z,2.87
2023-02-13T07:22:59.743Z,3.69
2023-02-13T07:25:26.320Z,3.04
2023-02-13T07:27:52.775Z,3.02
2023-02-13T07:30:19.212Z,3.27
2023-02-13T07:32:45.634Z,3.17
2023-02-13T07:35:12.120Z,3.44
2023-02-13T07:37:38.558Z,3.54
2023-02-13T07:40:06.556Z,3.65
2023-02-13T07:42:33.751Z,3.27
2023-02-13T07:45:00.292Z,3.39
2023-02-13T07:47:26.718Z,3.20
2023-02-13T07:49:54.824Z,3.50
2023-02-13T07:52:21.348Z,3.30
2023-02-13T07:54:48.065Z,3.32
2023-02-13T07:57:15.027Z,3.31
2023-02-13T07:59:41.585Z,3.88
2023-02-13T08:02:12.164Z,3.18
2023-02-13T08:04:38.718Z,3.26
2023-02-13T08:07:05.155Z,3.43
2023-02-13T08:09:50.438Z,3.66
2023-02-13T08:12:16.861Z,3.64
2023-02-13T08:14:43.294Z,3.50
2023-02-13T08:17:09.746Z,3.20
2023-02-13T08:19:36.213Z,3.01
2023-02-13T08:22:02.628Z,3.02
2023-02-13T08:24:29.075Z,3.05
2023-02-13T08:26:55.958Z,3.05
2023-02-13T08:29:22.579Z,3.03
2023-02-13T08:31:49.068Z,3.14
2023-02-13T08:34:15.542Z,3.06
2023-02-13T08:36:41.957Z,3.66
2023-02-13T08:39:09.344Z,3.65
2023-02-13T08:41:35.850Z,3.86
2023-02-13T08:44:02.313Z,3.86
2023-02-13T08:46:28.851Z,3.80
2023-02-13T08:48:55.566Z,3.20
2023-02-13T08:51:22.034Z,3.59
2023-02-13T08:53:48.536Z,3.45
2023-02-13T08:56:14.982Z,3.20
2023-02-13T08:58:43.265Z,3.38
2023-02-13T09:01:09.827Z,3.18
2023-02-13T09:03:36.413Z,3.17
2023-02-13T09:06:03.034Z,3.80
2023-02-13T09:08:29.611Z,3.79
2023-02-13T09:10:56.949Z,3.95
2023-02-13T09:13:23.463Z,3.89
2023-02-13T09:15:49.929Z,3.52
2023-02-13T09:18:16.401Z,3.38
2023-02-13T09:20:43.005Z,3.32
2023-02-13T09:23:09.482Z,3.37
2023-02-13T09:25:36.437Z,3.84
2023-02-13T09:28:02.959Z,3.83
2023-02-13T09:30:29.493Z,4.30
2023-02-13T09:32:55.990Z,4.58
2023-02-13T09:35:22.516Z,4.20
2023-02-13T09:37:48.985Z,4.52
2023-02-13T09:40:17.003Z,4.80
2023-02-13T09:42:43.433Z,4.70
2023-02-13T09:45:10.786Z,4.95
2023-02-13T09:47:37.630Z,4.98
2023-02-13T09:50:07.303Z,5.15
2023-02-13T09:52:34.558Z,5.24
2023-02-13T09:55:04.373Z,5.54
2023-02-13T09:57:34.954Z,5.84
2023-02-13T10:00:21.469Z,5.27
2023-02-13T10:06:36.683Z,4.48
2023-02-13T10:09:21.259Z,4.80
2023-02-13T10:12:01.599Z,4.89
2023-02-13T10:14:46.397Z,4.83
2023-02-13T10:17:24.021Z,4.97
2023-02-13T10:19:50.967Z,4.65
2023-02-13T10:22:18.459Z,4.82
2023-02-13T10:24:52.171Z,4.75
2023-02-13T10:27:23.072Z,5.42
2023-02-13T10:30:05.164Z,5.36
2023-02-13T10:32:46.753Z,5.13
2023-02-13T10:35:29.700Z,5.20
2023-02-13T10:37:56.671Z,5.80
2023-02-13T10:40:24.803Z,6.16
2023-02-13T10:42:54.288Z,7.10
2023-02-13T10:45:20.696Z,6.20
2023-02-13T10:48:03.570Z,6.16
2023-02-13T10:50:53.647Z,7.40
2023-02-13T10:53:23.010Z,8.30
2023-02-13T10:55:49.506Z,8.61
2023-02-13T10:58:18.413Z,7.64
2023-02-13T11:00:46.761Z,7.29
2023-02-13T11:03:20.761Z,8.95
2023-02-13T11:05:47.296Z,8.71
2023-02-13T11:08:21.400Z,8.13
2023-02-13T11:10:47.977Z,6.38
2023-02-13T11:13:17.407Z,7.04
2023-02-13T11:15:43.960Z,6.57
2023-02-13T11:18:13.562Z,7.04
2023-02-13T11:20:44.425Z,7.02
2023-02-13T11:23:17.236Z,7.20
2023-02-13T11:25:53.208Z,6.49
2023-02-13T11:28:20.961Z,6.58
2023-02-13T11:30:51.168Z,6.44
2023-02-13T11:33:17.663Z,6.51
2023-02-13T11:35:44.656Z,6.91
2023-02-13T11:38:18.232Z,6.96
2023-02-13T11:40:47.132Z,7.59
2023-02-13T11:43:23.799Z,7.75
2023-02-13T11:46:01.111Z,7.30
2023-02-13T11:48:27.767Z,7.55
2023-02-13T11:50:56.106Z,7.97
2023-02-13T11:53:32.858Z,7.73
2023-02-13T11:56:03.857Z,8.02
2023-02-13T11:58:31.385Z,8.17
2023-02-13T12:01:16.749Z,7.94
2023-02-13T12:03:43.620Z,8.57
2023-02-13T12:06:14.964Z,7.97
2023-02-13T12:08:42.059Z,7.79
2023-02-13T12:11:28.978Z,8.74
2023-02-13T12:13:55.504Z,8.31
2023-02-13T12:16:41.393Z,9.29
2023-02-13T12:19:11.160Z,8.45
2023-02-13T12:21:47.094Z,8.04
2023-02-13T12:24:19.425Z,7.61
2023-02-13T12:26:48.413Z,7.52
2023-02-13T12:29:20.599Z,7.57
2023-02-13T12:31:47.215Z,8.04
2023-02-13T12:34:34.217Z,7.62
2023-02-13T12:37:24.037Z,8.00
2023-02-13T12:39:55.684Z,7.73
2023-02-13T12:42:40.554Z,8.04
2023-02-13T12:45:25.585Z,8.57
2023-02-13T12:47:54.781Z,7.73
2023-02-13T12:50:22.047Z,7.23
2023-02-13T12:52:54.232Z,7.27
2023-02-13T12:55:39.483Z,7.62
2023-02-13T12:58:18.089Z,7.23
2023-02-13T13:00:50.662Z,7.38
2023-02-13T13:03:25.549Z,7.23
2023-02-13T13:06:13.632Z,7.65
2023-02-13T13:08:59.205Z,7.56
2023-02-13T13:11:44.452Z,7.65
2023-02-13T13:14:10.869Z,7.94
2023-02-13T13:16:45.254Z,6.95
2023-02-13T13:19:23.871Z,7.17
2023-02-13T13:22:05.381Z,7.23
2023-02-13T13:24:38.025Z,7.95
2023-02-13T13:27:04.579Z,7.31
2023-02-13T13:29:42.884Z,6.86
2023-02-13T13:32:09.689Z,6.29
2023-02-13T13:34:36.221Z,6.35
2023-02-13T13:37:21.490Z,6.63
2023-02-13T13:39:54.042Z,6.83
2023-02-13T13:42:23.097Z,6.26
2023-02-13T13:45:01.958Z,6.11
2023-02-13T13:47:40.898Z,6.02
2023-02-13T13:50:17.504Z,5.82
2023-02-13T13:52:44.027Z,5.58
2023-02-13T13:55:30.576Z,5.79
2023-02-13T13:57:56.998Z,5.09
2023-02-13T14:00:25.151Z,5.49
2023-02-13T14:02:52.823Z,5.61
2023-02-13T14:05:25.336Z,5.79
2023-02-13T14:07:53.392Z,5.90
2023-02-13T14:10:25.879Z,5.76
2023-02-13T14:12:55.434Z,5.69
2023-02-13T14:15:34.235Z,5.74
2023-02-13T14:18:01.476Z,6.12
2023-02-13T14:20:40.381Z,5.32
2023-02-13T14:23:07.690Z,4.62
2023-02-13T14:25:34.381Z,4.82
2023-02-13T14:28:01.561Z,4.97
2023-02-13T14:30:32.793Z,5.40
2023-02-13T14:33:00.476Z,4.78
2023-02-13T14:35:27.764Z,5.03
2023-02-13T14:37:54.673Z,4.97
2023-02-13T14:40:22.047Z,5.07
2023-02-13T14:43:08.201Z,5.17
2023-02-13T14:45:36.021Z,5.78
2023-02-13T14:48:03.516Z,5.99
2023-02-13T14:50:31.092Z,5.78
2023-02-13T14:52:58.015Z,5.70
2023-02-13T14:55:27.388Z,6.07
2023-02-13T14:57:54.450Z,5.79
2023-02-13T15:00:39.541Z,5.66
2023-02-13T15:03:11.419Z,5.53
2023-02-13T15:05:37.910Z,6.28
2023-02-13T15:08:14.247Z,5.69
2023-02-13T15:10:40.660Z,5.32
2023-02-13T15:13:13.033Z,5.20
2023-02-13T15:15:39.912Z,5.15
2023-02-13T15:18:10.540Z,5.06
2023-02-13T15:20:37.751Z,5.16
2023-02-13T15:23:06.663Z,5.01
2023-02-13T15:25:36.675Z,4.80
2023-02-13T15:28:03.889Z,5.18
2023-02-13T15:30:31.166Z,5.00
2023-02-13T15:33:01.450Z,5.16
2023-02-13T15:35:29.313Z,5.23
2023-02-13T15:37:55.858Z,5.08
2023-02-13T15:40:24.509Z,4.84
2023-02-13T15:42:51.110Z,4.72
2023-02-13T15:45:17.888Z,4.89
2023-02-13T15:47:45.462Z,4.56
2023-02-13T15:50:19.346Z,4.70
2023-02-13T15:52:45.838Z,5.22
2023-02-13T15:55:31.345Z,4.93
2023-02-13T15:57:58.371Z,4.89
2023-02-13T16:00:29.209Z,4.72
2023-02-13T16:02:56.187Z,4.84
2023-02-13T16:05:38.506Z,4.91
2023-02-13T16:08:20.743Z,5.10
2023-02-13T16:10:47.418Z,5.02
2023-02-13T16:13:16.969Z,4.99
2023-02-13T16:15:46.200Z,5.11
2023-02-13T16:18:19.176Z,5.37
2023-02-13T16:20:45.606Z,5.00
2023-02-13T16:23:21.250Z,5.12
2023-02-13T16:25:47.790Z,4.87
2023-02-13T16:28:21.612Z,5.09
2023-02-13T16:30:52.299Z,5.35
2023-02-13T16:33:22.846Z,5.35
2023-02-13T16:35:56.575Z,5.47
2023-02-13T16:38:33.035Z,5.81
2023-02-13T16:41:00.497Z,5.53
2023-02-13T16:43:34.879Z,5.24
2023-02-13T16:46:19.558Z,5.27
2023-02-13T16:48:58.929Z,5.74
2023-02-13T16:51:37.613Z,5.79
2023-02-13T16:54:15.587Z,5.79
2023-02-13T16:56:45.005Z,5.60
2023-02-13T16:59:17.630Z,5.62
2023-02-13T17:01:44.164Z,5.53
2023-02-13T17:04:16.575Z,5.32
2023-02-13T17:06:43.353Z,5.38
2023-02-13T17:09:09.883Z,5.45
2023-02-13T17:11:36.326Z,4.84
2023-02-13T17:14:06.644Z,4.61
2023-02-13T17:16:33.153Z,4.51
2023-02-13T17:18:59.720Z,4.90
2023-02-13T17:21:27.314Z,5.07
2023-02-13T17:23:53.863Z,5.02
2023-02-13T17:26:20.408Z,4.78
2023-02-13T17:28:49.153Z,5.05
2023-02-13T17:31:15.701Z,5.03
2023-02-13T17:33:43.261Z,4.76
2023-02-13T17:36:10.624Z,4.52
2023-02-13T17:38:37.105Z,4.58
2023-02-13T17:41:05.807Z,5.11
2023-02-13T17:43:32.278Z,5.05
2023-02-13T17:46:01.175Z,4.99
2023-02-13T17:48:28.095Z,5.07
2023-02-13T17:50:54.641Z,5.00
2023-02-13T17:53:22.079Z,4.94
2023-02-13T17:55:48.560Z,4.75
2023-02-13T17:58:15.102Z,4.93
2023-02-13T18:00:41.639Z,5.16
2023-02-13T18:03:08.251Z,5.28
2023-02-13T18:05:34.818Z,5.20
2023-02-13T18:08:02.729Z,5.24
2023-02-13T18:10:29.809Z,5.14
2023-02-13T18:12:57.209Z,4.75
2023-02-13T18:15:24.384Z,4.45
2023-02-13T18:17:50.856Z,4.66
2023-02-13T18:20:18.298Z,5.01
2023-02-13T18:22:44.878Z,4.64
2023-02-13T18:25:11.432Z,4.47
2023-02-13T18:27:37.897Z,4.21
2023-02-13T18:30:07.325Z,4.24
2023-02-13T18:32:33.890Z,4.52
2023-02-13T18:35:00.449Z,4.87
2023-02-13T18:37:33.456Z,4.93
2023-02-13T18:40:00.071Z,4.83
2023-02-13T18:42:26.572Z,4.89
2023-02-13T18:44:53.048Z,4.78
2023-02-13T18:47:19.632Z,4.59
2023-02-13T18:49:46.480Z,4.43
2023-02-13T18:56:00.719Z,4.66
2023-02-13T18:58:27.125Z,4.58
2023-02-13T19:00:53.578Z,4.75
2023-02-13T19:03:20.056Z,4.97
2023-02-13T19:05:46.559Z,4.86
2023-02-13T19:08:12.972Z,4.83
2023-02-13T19:10:39.538Z,4.71
2023-02-13T19:13:05.942Z,4.78
2023-02-13T19:15:32.474Z,4.52
2023-02-13T19:17:58.952Z,4.74
2023-02-13T19:20:25.354Z,4.37
2023-02-13T19:22:51.840Z,4.53
2023-02-13T19:25:19.122Z,4.52
2023-02-13T19:27:45.799Z,4.67
2023-02-13T19:30:12.607Z,4.82
2023-02-13T19:32:39.213Z,4.87
2023-02-13T19:35:05.882Z,4.93
2023-02-13T19:37:43.000Z,4.80
2023-02-13T19:40:10.864Z,4.69
2023-02-13T19:42:39.752Z,4.74
2023-02-13T19:45:06.609Z,4.40
2023-02-13T19:47:33.453Z,4.02
2023-02-13T19:50:00.070Z,4.46
2023-02-13T19:52:26.556Z,4.36
2023-02-13T19:54:54.163Z,4.03
2023-02-13T19:57:21.935Z,3.69
2023-02-13T19:59:48.482Z,3.65
2023-02-13T20:02:15.362Z,4.09
2023-02-13T20:04:41.861Z,4.18
2023-02-13T20:07:08.630Z,4.11
2023-02-13T20:09:37.900Z,3.99
2023-02-13T20:12:04.509Z,3.75
2023-02-13T20:14:30.945Z,3.86
2023-02-13T20:16:58.313Z,3.87
2023-02-13T20:19:24.763Z,4.09
2023-02-13T20:21:51.346Z,3.97
2023-02-13T20:24:17.775Z,4.05
2023-02-13T20:26:44.267Z,3.95
2023-02-13T20:29:10.827Z,3.68
2023-02-13T20:31:39.501Z,3.71
2023-02-13T20:34:06.177Z,3.60
2023-02-13T20:36:32.892Z,3.75
2023-02-13T20:39:00.195Z,3.71
2023-02-13T20:41:30.375Z,3.60
2023-02-13T20:43:57.531Z,3.43
2023-02-13T20:46:24.022Z,3.51
2023-02-13T20:48:50.517Z,3.18
2023-02-13T20:51:17.546Z,2.69
2023-02-13T20:53:44.213Z,2.82
2023-02-13T20:56:14.436Z,2.47
2023-02-13T20:58:41.284Z,2.45
2023-02-13T21:01:14.225Z,2.36
2023-02-13T21:03:41.298Z,2.30
2023-02-13T21:06:07.984Z,1.97
2023-02-13T21:08:34.550Z,1.92
2023-02-13T21:11:02.160Z,1.67
2023-02-13T21:13:29.094Z,1.97
2023-02-13T21:16:02.921Z,2.06
2023-02-13T21:18:29.416Z,1.97
2023-02-13T21:20:57.477Z,1.82
2023-02-13T21:23:24.158Z,1.63
2023-02-13T21:25:50.602Z,1.54
2023-02-13T21:28:17.055Z,1.54
2023-02-13T21:30:43.696Z,1.58
2023-02-13T21:33:10.310Z,1.79
2023-02-13T21:35:36.739Z,1.93
2023-02-13T21:38:03.248Z,2.14
2023-02-13T21:40:29.698Z,2.15
2023-02-13T21:42:56.405Z,2.05
2023-02-13T21:45:22.828Z,2.14
2023-02-13T21:47:49.388Z,2.37
2023-02-13T21:50:15.808Z,1.94
2023-02-13T21:52:42.273Z,1.99
2023-02-13T21:55:08.985Z,1.97
2023-02-13T21:57:35.444Z,1.66
2023-02-13T22:00:04.028Z,2.01
2023-02-13T22:02:39.514Z,2.16
2023-02-13T22:05:06.070Z,2.05
2023-02-13T22:07:52.528Z,2.09
2023-02-13T22:10:18.970Z,1.74
2023-02-13T22:12:45.448Z,1.96
2023-02-13T22:15:12.056Z,1.47
2023-02-13T22:17:38.533Z,1.09
2023-02-13T22:20:05.213Z,1.26
2023-02-13T22:22:31.854Z,1.20
2023-02-13T22:24:58.305Z,0.83
2023-02-13T22:27:24.832Z,0.67
2023-02-13T22:29:51.462Z,0.73
2023-02-13T22:32:18.171Z,0.95
2023-02-13T22:34:44.839Z,0.67
2023-02-13T22:37:12.898Z,1.04
2023-02-13T22:39:39.694Z,0.98
2023-02-13T22:42:06.294Z,0.67
2023-02-13T22:44:32.899Z,0.54
2023-02-13T22:46:59.557Z,0.56
2023-02-13T22:49:26.304Z,0.57
2023-02-13T22:51:52.902Z,0.70
2023-02-13T22:54:19.473Z,0.74
2023-02-13T22:56:46.089Z,1.04
2023-02-13T22:59:12.664Z,1.11
2023-02-13T23:01:39.812Z,1.46
2023-02-13T23:04:06.463Z,1.46
2023-02-13T23:06:33.051Z,1.28
2023-02-13T23:08:59.638Z,1.21
2023-02-13T23:11:45.943Z,0.81
2023-02-13T23:14:12.692Z,0.84
2023-02-13T23:16:58.000Z,0.73
2023-02-13T23:19:25.548Z,0.77
2023-02-13T23:21:52.160Z,0.53
2023-02-13T23:24:18.937Z,0.87
2023-02-13T23:26:45.557Z,0.85
2023-02-13T23:29:12.171Z,0.90
2023-02-13T23:31:38.902Z,0.79
2023-02-13T23:34:05.575Z,0.88
2023-02-13T23:36:32.484Z,1.19
2023-02-13T23:38:59.097Z,0.99
2023-02-13T23:41:25.727Z,0.69
2023-02-13T23:43:52.330Z,0.36
2023-02-13T23:46:19.029Z,0.29
2023-02-13T23:48:46.268Z,0.52
2023-02-13T23:51:12.841Z,0.24
2023-02-13T23:53:39.458Z,0.22
2023-02-13T23:56:06.490Z,0.13
2023-02-13T23:58:33.119Z,0.04
